createdAt,value
2023-02-07T04:07:13.264Z,27.11
2023-02-07T04:28:13.193Z,25.92
2023-02-07T04:29:13.156Z,26.24
2023-02-07T04:30:13.151Z,26.89
2023-02-07T04:32:13.140Z,26.23
2023-02-07T04:33:13.143Z,28.15
2023-02-07T04:34:13.162Z,26.98
2023-02-07T04:35:13.148Z,28.32
2023-02-07T04:36:13.137Z,26.64
2023-02-07T04:37:13.148Z,27.63
2023-02-07T04:38:13.145Z,28.69
2023-02-07T04:39:13.128Z,27.52
2023-02-07T04:40:13.156Z,26.29
2023-02-07T04:41:13.149Z,26.46
2023-02-07T04:42:13.167Z,26.75
2023-02-07T04:43:13.184Z,28.36
2023-02-07T04:44:13.209Z,26.49
2023-02-07T04:45:13.207Z,26.15
2023-02-07T04:46:13.238Z,27.67
2023-02-07T04:47:13.224Z,27.57
2023-02-07T04:48:13.244Z,25.92
2023-02-07T04:49:13.254Z,27.77
2023-02-07T04:50:13.266Z,26.42
2023-02-07T04:51:13.254Z,26.02
2023-02-07T04:52:13.250Z,26.01
2023-02-07T04:53:13.273Z,27.10
2023-02-07T04:54:13.250Z,27.01
2023-02-07T04:55:13.247Z,25.98
2023-02-07T04:56:13.246Z,26.81
2023-02-07T04:57:13.260Z,26.75
2023-02-07T04:58:13.256Z,25.22
2023-02-07T04:59:13.277Z,25.95
2023-02-07T05:00:13.284Z,25.97
2023-02-07T05:01:13.323Z,26.93
2023-02-07T05:02:13.291Z,26.08
2023-02-07T05:03:13.303Z,25.56
2023-02-07T05:04:13.340Z,26.51
2023-02-07T05:05:13.307Z,27.03
2023-02-07T05:06:13.304Z,27.34
2023-02-07T05:07:13.296Z,26.08
2023-02-07T05:08:13.290Z,27.57
2023-02-07T05:09:13.298Z,26.50
2023-02-07T05:10:13.292Z,27.35
2023-02-07T05:11:13.302Z,27.40
2023-02-07T05:12:13.308Z,26.87
2023-02-07T05:13:13.302Z,25.35
2023-02-07T05:14:13.301Z,26.43
2023-02-07T05:15:13.309Z,25.20
2023-02-07T05:16:13.312Z,26.10
2023-02-07T05:17:13.306Z,25.90
2023-02-07T05:18:13.306Z,25.61
2023-02-07T05:19:13.334Z,26.24
2023-02-07T05:20:13.319Z,26.38
2023-02-07T05:21:13.327Z,26.96
2023-02-07T05:22:13.320Z,27.11
2023-02-07T05:23:13.305Z,25.76
2023-02-07T05:24:13.303Z,27.08
2023-02-07T05:25:13.299Z,25.71
2023-02-07T05:26:13.301Z,25.64
2023-02-07T05:27:13.281Z,27.08
2023-02-07T05:28:13.309Z,25.94
2023-02-07T05:29:13.288Z,26.37
2023-02-07T05:30:13.281Z,25.76
2023-02-07T05:31:13.411Z,27.59
2023-02-07T05:32:13.263Z,26.91
2023-02-07T05:33:13.281Z,26.49
2023-02-07T05:34:13.285Z,25.68
2023-02-07T05:35:13.281Z,25.47
2023-02-07T05:36:13.276Z,26.85
2023-02-07T05:37:13.269Z,26.74
2023-02-07T05:38:13.245Z,26.85
2023-02-07T05:39:13.255Z,26.21
2023-02-07T05:40:13.258Z,27.52
2023-02-07T05:41:13.238Z,27.44
2023-02-07T05:42:13.230Z,27.66
2023-02-07T05:43:13.228Z,26.82
2023-02-07T05:44:13.216Z,26.80
2023-02-07T05:45:13.211Z,25.67
2023-02-07T05:46:13.252Z,26.83
2023-02-07T05:47:13.207Z,26.62
2023-02-07T05:48:13.217Z,25.00
2023-02-07T05:49:13.234Z,25.84
2023-02-07T05:50:13.221Z,28.23
2023-02-07T05:51:13.205Z,27.30
2023-02-07T05:52:13.203Z,27.24
2023-02-07T05:53:13.207Z,26.20
2023-02-07T05:54:13.203Z,26.33
2023-02-07T05:55:13.207Z,25.44
2023-02-07T05:56:13.180Z,25.28
2023-02-07T05:57:13.178Z,26.41
2023-02-07T05:58:13.194Z,25.74
2023-02-07T05:59:13.195Z,26.24
2023-02-07T06:00:13.259Z,27.34
2023-02-07T06:01:13.197Z,27.33
2023-02-07T06:02:13.217Z,25.91
2023-02-07T06:03:13.198Z,27.70
2023-02-07T06:04:13.176Z,26.50
2023-02-07T06:05:13.172Z,27.58
2023-02-07T06:06:13.175Z,26.45
2023-02-07T06:07:13.167Z,27.73
2023-02-07T06:08:13.167Z,25.22
2023-02-07T06:09:13.155Z,25.52
2023-02-07T06:10:13.150Z,26.33
2023-02-07T06:11:13.151Z,26.74
2023-02-07T06:12:13.138Z,26.91
2023-02-07T06:13:13.133Z,26.00
2023-02-07T06:14:13.121Z,25.00
2023-02-07T06:15:13.113Z,28.08
2023-02-07T06:16:13.121Z,25.00
2023-02-07T06:17:13.113Z,26.60
2023-02-07T06:18:13.115Z,28.89
2023-02-07T06:19:13.112Z,26.98
2023-02-07T06:20:13.101Z,25.93
2023-02-07T06:21:13.099Z,25.66
2023-02-07T06:22:13.091Z,26.00
2023-02-07T06:23:13.084Z,27.36
2023-02-07T06:24:13.087Z,28.70
2023-02-07T06:25:13.107Z,28.53
2023-02-07T06:26:13.076Z,29.32
2023-02-07T06:27:13.060Z,32.63
2023-02-07T06:28:13.184Z,30.71
2023-02-07T06:29:13.057Z,28.90
2023-02-07T06:30:13.058Z,28.15
2023-02-07T06:31:13.178Z,29.21
2023-02-07T06:32:13.044Z,30.15
2023-02-07T06:33:13.030Z,29.55
2023-02-07T06:34:13.028Z,29.57
2023-02-07T06:35:13.012Z,29.93
2023-02-07T06:36:13.028Z,27.92
2023-02-07T06:37:13.022Z,27.77
2023-02-07T06:38:12.997Z,26.85
2023-02-07T06:39:12.986Z,27.61
2023-02-07T06:40:12.992Z,27.95
2023-02-07T06:41:12.982Z,27.43
2023-02-07T06:42:12.974Z,26.90
2023-02-07T06:43:12.978Z,26.29
2023-02-07T06:44:13.521Z,27.63
2023-02-07T06:45:13.110Z,26.58
2023-02-07T06:46:13.043Z,25.53
2023-02-07T06:47:13.042Z,25.00
2023-02-07T06:48:13.060Z,25.95
2023-02-07T06:49:13.066Z,25.00
2023-02-07T06:50:13.056Z,26.04
2023-02-07T06:51:13.063Z,26.72
2023-02-07T06:52:13.039Z,25.50
2023-02-07T06:53:13.032Z,28.33
2023-02-07T06:54:13.028Z,25.97
2023-02-07T06:55:13.023Z,26.51
2023-02-07T06:56:13.017Z,26.02
2023-02-07T06:57:13.032Z,27.28
2023-02-07T06:58:13.035Z,25.68
2023-02-07T06:59:13.005Z,26.73
2023-02-07T07:00:13.020Z,27.35
2023-02-07T07:01:13.004Z,27.03
2023-02-07T07:02:12.995Z,28.59
2023-02-07T07:03:13.018Z,26.54
2023-02-07T07:04:13.004Z,28.07
2023-02-07T07:05:14.914Z,27.10
2023-02-07T07:06:13.014Z,28.95
2023-02-07T07:07:12.973Z,26.95
2023-02-07T07:08:12.958Z,27.67
2023-02-07T07:09:12.942Z,28.47
2023-02-07T07:10:12.961Z,26.99
2023-02-07T07:11:12.907Z,27.38
2023-02-07T07:12:12.919Z,26.44
2023-02-07T07:13:12.886Z,26.88
2023-02-07T07:14:12.872Z,27.24
2023-02-07T07:15:12.869Z,25.57
2023-02-07T07:16:12.905Z,26.48
2023-02-07T07:17:12.848Z,26.90
2023-02-07T07:18:12.843Z,26.48
2023-02-07T07:19:12.815Z,27.88
2023-02-07T07:20:12.809Z,27.03
2023-02-07T07:21:12.794Z,26.80
2023-02-07T07:22:12.804Z,27.73
2023-02-07T07:23:12.769Z,27.47
2023-02-07T07:24:12.753Z,27.96
2023-02-07T07:25:12.755Z,26.85
2023-02-07T07:49:12.592Z,26.83
2023-02-07T07:55:12.554Z,29.24
2023-02-07T07:56:12.548Z,29.05
2023-02-07T07:57:12.541Z,28.97
2023-02-07T07:58:12.534Z,29.97
2023-02-07T07:59:23.683Z,29.02
2023-02-07T08:01:12.538Z,29.66
2023-02-07T08:02:12.600Z,30.05
2023-02-07T08:03:12.494Z,29.34
2023-02-07T08:04:12.497Z,29.37
2023-02-07T08:05:13.824Z,27.40
2023-02-07T08:06:12.471Z,26.52
2023-02-07T08:07:12.482Z,27.27
2023-02-07T08:08:12.460Z,28.63
2023-02-07T08:09:12.450Z,27.49
2023-02-07T08:10:12.451Z,26.38
2023-02-07T08:11:12.442Z,28.62
2023-02-07T08:12:12.449Z,27.16
2023-02-07T08:13:12.443Z,25.99
2023-02-07T08:14:12.431Z,27.39
2023-02-07T08:15:12.426Z,27.17
2023-02-07T08:16:12.471Z,27.91
2023-02-07T08:17:12.411Z,28.64
2023-02-07T08:18:12.397Z,30.77
2023-02-07T08:19:12.417Z,43.63
2023-02-07T08:20:12.391Z,34.90
2023-02-07T08:21:12.361Z,38.66
2023-02-07T08:22:12.362Z,0.00
2023-02-07T08:23:12.363Z,0.00
2023-02-07T08:24:12.371Z,0.00
2023-02-07T08:25:12.372Z,0.00
2023-02-07T08:26:12.387Z,27.81
2023-02-07T08:27:12.404Z,37.65
2023-02-07T08:28:12.438Z,49.69
2023-02-07T08:29:12.408Z,64.33
2023-02-07T08:30:12.427Z,70.59
2023-02-07T08:31:12.485Z,74.99
2023-02-07T08:32:12.504Z,77.16
2023-02-07T08:33:12.484Z,78.85
2023-02-07T08:34:12.502Z,88.37
2023-02-07T08:35:12.534Z,90.99
2023-02-07T08:36:12.551Z,93.99
2023-02-07T08:37:12.557Z,97.91
2023-02-07T08:38:12.633Z,104.56
2023-02-07T08:39:12.588Z,108.11
2023-02-07T08:40:12.631Z,114.42
2023-02-07T08:41:12.624Z,117.22
2023-02-07T08:42:12.659Z,125.37
2023-02-07T08:43:12.736Z,130.11
2023-02-07T08:44:12.792Z,134.46
2023-02-07T08:45:12.834Z,138.21
2023-02-07T08:46:12.970Z,141.58
2023-02-07T08:47:12.928Z,147.18
2023-02-07T08:48:12.981Z,149.94
2023-02-07T08:49:13.014Z,154.79
2023-02-07T08:50:13.073Z,158.27
2023-02-07T08:51:13.110Z,161.11
2023-02-07T08:52:13.155Z,167.96
2023-02-07T08:53:13.152Z,172.90
2023-02-07T08:54:13.192Z,176.62
2023-02-07T08:55:13.210Z,181.19
2023-02-07T08:56:13.237Z,179.49
2023-02-07T08:57:13.263Z,182.33
2023-02-07T08:58:13.262Z,187.14
2023-02-07T08:59:13.285Z,190.98
2023-02-07T09:00:13.296Z,189.83
2023-02-07T09:01:13.344Z,191.03
2023-02-07T09:02:13.357Z,194.63
2023-02-07T09:03:14.500Z,196.55
2023-02-07T09:04:13.300Z,199.54
2023-02-07T09:05:13.304Z,202.29
2023-02-07T09:06:13.302Z,205.55
2023-02-07T09:07:13.296Z,206.36
2023-02-07T09:08:13.301Z,205.99
2023-02-07T09:09:13.341Z,211.37
2023-02-07T09:10:13.299Z,214.82
2023-02-07T09:11:13.351Z,213.34
2023-02-07T09:12:13.284Z,214.60
2023-02-07T09:13:13.278Z,217.16
2023-02-07T09:14:13.279Z,214.76
2023-02-07T09:15:13.249Z,218.50
2023-02-07T09:16:13.257Z,174.25
2023-02-07T09:17:13.285Z,119.90
2023-02-07T09:18:13.323Z,122.77
2023-02-07T09:19:13.325Z,139.79
2023-02-07T09:20:13.362Z,141.30
2023-02-07T09:21:13.356Z,132.82
2023-02-07T09:22:13.356Z,80.74
2023-02-07T09:23:13.366Z,63.04
2023-02-07T09:24:13.413Z,72.91
2023-02-07T09:25:13.442Z,82.55
2023-02-07T09:26:14.089Z,82.66
2023-02-07T09:27:13.529Z,57.51
2023-02-07T09:28:13.629Z,58.83
2023-02-07T09:29:13.613Z,65.45
2023-02-07T09:30:13.648Z,67.04
2023-02-07T09:31:13.762Z,67.22
2023-02-07T09:32:13.692Z,59.97
2023-02-07T09:33:13.713Z,51.57
2023-02-07T09:34:13.721Z,60.57
2023-02-07T09:35:13.730Z,81.25
2023-02-07T09:36:13.715Z,76.43
2023-02-07T09:37:14.588Z,63.47
2023-02-07T09:38:13.737Z,55.75
2023-02-07T09:39:13.784Z,51.15
2023-02-07T09:40:13.782Z,54.96
2023-02-07T09:41:14.586Z,50.37
2023-02-07T09:42:13.780Z,48.43
2023-02-07T09:43:14.070Z,46.21
2023-02-07T09:44:14.055Z,40.28
2023-02-07T09:45:13.940Z,54.55
2023-02-07T09:46:14.059Z,64.64
2023-02-07T09:47:13.938Z,76.42
2023-02-07T09:48:13.978Z,63.47
2023-02-07T09:49:14.522Z,50.98
2023-02-07T09:50:14.056Z,50.87
2023-02-07T09:51:14.061Z,71.35
2023-02-07T09:52:14.096Z,77.06
2023-02-07T09:53:15.765Z,77.57
2023-02-07T09:54:14.159Z,59.05
2023-02-07T09:55:14.223Z,49.46
2023-02-07T09:56:14.232Z,49.89
2023-02-07T09:57:14.244Z,48.80
2023-02-07T09:58:14.277Z,48.00
2023-02-07T09:59:14.418Z,49.91
2023-02-07T10:00:14.369Z,52.05
2023-02-07T10:01:14.444Z,71.91
2023-02-07T10:02:14.430Z,69.61
2023-02-07T10:03:14.447Z,56.35
2023-02-07T10:04:14.480Z,80.78
2023-02-07T10:05:14.498Z,65.25
2023-02-07T10:06:18.751Z,86.09
2023-02-07T10:07:14.521Z,86.26
2023-02-07T10:08:14.511Z,84.44
2023-02-07T10:09:14.497Z,87.47
2023-02-07T10:10:14.483Z,90.81
2023-02-07T10:11:14.492Z,95.17
2023-02-07T10:12:14.456Z,102.14
2023-02-07T10:13:14.447Z,100.01
2023-02-07T10:14:14.573Z,95.34
2023-02-07T10:15:14.408Z,66.19
2023-02-07T10:16:14.384Z,86.30
2023-02-07T10:17:25.832Z,87.23
2023-02-07T10:18:15.352Z,87.96
2023-02-07T10:19:14.330Z,87.63
2023-02-07T10:20:14.330Z,63.14
2023-02-07T10:21:14.296Z,73.26
2023-02-07T10:22:14.325Z,87.95
2023-02-07T10:23:14.292Z,70.40
2023-02-07T10:24:14.257Z,86.97
2023-02-07T10:25:14.259Z,104.38
2023-02-07T10:26:14.209Z,101.10
2023-02-07T10:27:14.199Z,84.45
2023-02-07T10:28:14.234Z,84.62
2023-02-07T10:29:14.255Z,109.04
2023-02-07T10:30:14.306Z,112.34
2023-02-07T10:31:14.447Z,115.11
2023-02-07T10:32:14.397Z,115.34
2023-02-07T10:33:14.453Z,114.38
2023-02-07T10:34:14.501Z,113.25
2023-02-07T10:35:15.111Z,119.17
2023-02-07T10:36:14.614Z,117.51
2023-02-07T10:37:14.664Z,119.20
2023-02-07T10:38:14.716Z,119.02
2023-02-07T10:39:14.769Z,117.33
2023-02-07T10:40:14.782Z,122.55
2023-02-07T10:41:14.826Z,124.92
2023-02-07T10:42:14.861Z,121.69
2023-02-07T10:43:14.904Z,122.18
2023-02-07T10:44:14.945Z,122.46
2023-02-07T10:45:14.979Z,120.13
2023-02-07T10:46:15.039Z,116.23
2023-02-07T10:47:15.054Z,68.92
2023-02-07T10:48:15.097Z,14.73
2023-02-07T10:49:15.136Z,9.11
2023-02-07T10:50:18.683Z,12.17
2023-02-07T10:51:16.167Z,2.80
2023-02-07T10:52:15.158Z,12.65
2023-02-07T10:53:15.148Z,28.22
2023-02-07T10:54:15.146Z,56.73
2023-02-07T10:55:15.136Z,99.38
2023-02-07T10:56:15.143Z,110.63
2023-02-07T10:57:15.111Z,120.37
2023-02-07T10:58:22.940Z,124.33
2023-02-07T10:59:16.087Z,124.49
2023-02-07T11:00:15.062Z,124.82
2023-02-07T11:01:15.069Z,126.30
2023-02-07T11:02:15.023Z,130.51
2023-02-07T11:03:15.004Z,133.82
2023-02-07T11:04:15.002Z,138.18
2023-02-07T11:05:14.979Z,140.55
2023-02-07T11:06:14.961Z,141.84
2023-02-07T11:07:14.961Z,143.84
2023-02-07T11:08:14.919Z,147.39
2023-02-07T11:09:14.914Z,142.36
2023-02-07T11:10:14.930Z,149.35
2023-02-07T11:11:14.932Z,150.87
2023-02-07T11:12:14.955Z,146.50
2023-02-07T11:13:14.982Z,151.44
2023-02-07T11:14:15.005Z,153.79
2023-02-07T11:15:15.049Z,156.16
2023-02-07T11:17:15.113Z,157.31
2023-02-07T11:18:15.088Z,158.11
2023-02-07T11:19:15.111Z,159.73
2023-02-07T11:20:15.153Z,162.66
2023-02-07T11:21:15.163Z,161.55
2023-02-07T11:22:15.205Z,159.75
2023-02-07T11:23:15.219Z,163.00
2023-02-07T11:24:15.250Z,164.65
2023-02-07T11:25:15.310Z,164.74
2023-02-07T11:26:15.309Z,166.39
2023-02-07T11:27:15.336Z,165.60
2023-02-07T11:28:15.402Z,166.78
2023-02-07T11:29:15.348Z,166.95
2023-02-07T11:30:15.324Z,167.26
2023-02-07T11:31:15.445Z,168.13
2023-02-07T11:32:15.272Z,168.26
2023-02-07T11:33:15.245Z,171.47
2023-02-07T11:34:15.221Z,172.12
2023-02-07T11:35:15.200Z,170.67
2023-02-07T11:36:15.248Z,171.39
2023-02-07T11:37:15.300Z,172.59
2023-02-07T11:38:15.143Z,171.43
2023-02-07T11:39:15.130Z,170.62
2023-02-07T11:40:15.183Z,170.54
2023-02-07T11:41:15.184Z,173.04
2023-02-07T11:42:15.234Z,173.89
2023-02-07T11:44:15.351Z,171.60
2023-02-07T11:45:15.396Z,172.43
2023-02-07T11:46:15.433Z,172.31
2023-02-07T11:47:15.507Z,173.40
2023-02-07T11:48:15.480Z,173.39
2023-02-07T11:49:15.518Z,173.68
2023-02-07T11:50:15.556Z,173.71
2023-02-07T11:51:15.608Z,172.44
2023-02-07T11:52:15.670Z,173.42
2023-02-07T11:53:15.708Z,171.54
2023-02-07T11:54:15.761Z,174.35
2023-02-07T11:56:15.852Z,172.46
2023-02-07T11:57:15.904Z,173.48
2023-02-07T11:58:15.949Z,173.89
2023-02-07T11:59:16.041Z,173.16
2023-02-07T12:00:16.060Z,171.99
2023-02-07T12:01:16.112Z,172.60
2023-02-07T12:02:16.248Z,175.85
2023-02-07T12:03:16.200Z,173.86
2023-02-07T12:04:16.267Z,172.99
2023-02-07T12:05:16.391Z,174.27
2023-02-07T12:06:16.370Z,172.43
2023-02-07T12:07:16.442Z,173.36
2023-02-07T12:08:16.484Z,173.44
2023-02-07T12:09:16.535Z,174.97
2023-02-07T12:10:16.596Z,173.37
2023-02-07T12:11:16.643Z,174.78
2023-02-07T12:12:16.700Z,174.71
2023-02-07T12:13:16.766Z,175.36
2023-02-07T12:14:16.834Z,172.72
2023-02-07T12:15:16.966Z,174.13
2023-02-07T12:16:16.946Z,174.15
2023-02-07T12:17:16.974Z,173.73
2023-02-07T12:18:17.270Z,175.32
2023-02-07T12:19:17.097Z,172.27
2023-02-07T12:20:17.157Z,173.68
2023-02-07T12:21:17.204Z,171.79
2023-02-07T12:22:17.254Z,175.15
2023-02-07T12:23:40.698Z,173.49
2023-02-07T12:24:18.283Z,173.61
2023-02-07T12:33:17.212Z,172.66
2023-02-07T12:34:17.265Z,174.21
2023-02-07T12:35:17.320Z,173.89
2023-02-07T12:36:17.371Z,173.97
2023-02-07T12:37:17.525Z,173.21
2023-02-07T12:38:17.480Z,174.37
2023-02-07T12:39:17.516Z,174.94
2023-02-07T12:40:17.583Z,175.43
2023-02-07T12:41:17.604Z,174.74
2023-02-07T12:42:17.659Z,173.99
2023-02-07T12:43:17.676Z,172.95
2023-02-07T12:44:17.712Z,174.92
2023-02-07T12:45:17.728Z,174.06
2023-02-07T12:46:17.757Z,173.08
2023-02-07T12:47:17.773Z,174.05
2023-02-07T12:48:17.799Z,174.35
2023-02-07T12:49:17.837Z,174.55
2023-02-07T12:50:17.867Z,174.23
2023-02-07T12:51:17.907Z,175.41
2023-02-07T12:52:17.945Z,174.28
2023-02-07T12:53:17.964Z,174.05
2023-02-07T12:54:17.996Z,174.82
2023-02-07T12:55:18.011Z,173.57
2023-02-07T12:56:18.055Z,174.15
2023-02-07T12:57:18.071Z,177.30
2023-02-07T12:58:18.114Z,179.54
2023-02-07T12:59:18.136Z,180.11
2023-02-07T13:00:18.191Z,178.88
2023-02-07T13:01:18.304Z,176.43
2023-02-07T13:02:18.283Z,173.41
2023-02-07T13:03:18.309Z,174.60
2023-02-07T13:04:18.312Z,175.32
2023-02-07T13:05:18.331Z,181.05
2023-02-07T13:06:18.423Z,184.42
2023-02-07T13:07:18.404Z,190.12
2023-02-07T13:08:18.415Z,193.47
2023-02-07T13:09:18.463Z,195.35
2023-02-07T13:10:18.501Z,196.93
2023-02-07T13:11:18.508Z,196.77
2023-02-07T13:12:18.536Z,197.39
2023-02-07T13:13:18.573Z,198.95
2023-02-07T13:14:18.570Z,198.91
2023-02-07T13:15:18.598Z,200.06
2023-02-07T13:16:18.666Z,201.32
2023-02-07T13:17:18.636Z,200.35
2023-02-07T13:18:18.681Z,199.61
2023-02-07T13:19:18.680Z,199.91
2023-02-07T13:20:18.708Z,198.57
2023-02-07T13:21:18.741Z,199.48
2023-02-07T13:22:18.778Z,200.28
2023-02-07T13:23:18.792Z,200.56
2023-02-07T13:24:18.810Z,200.07
2023-02-07T13:25:18.839Z,200.86
2023-02-07T13:26:18.878Z,200.60
2023-02-07T13:27:18.916Z,201.30
2023-02-07T13:28:18.957Z,200.79
2023-02-07T13:29:18.952Z,199.65
2023-02-07T13:30:18.949Z,201.46
2023-02-07T13:31:19.036Z,199.83
2023-02-07T13:32:19.018Z,200.89
2023-02-07T13:33:19.032Z,201.42
2023-02-07T13:34:19.055Z,200.87
2023-02-07T13:35:19.088Z,202.26
2023-02-07T13:36:19.103Z,201.44
2023-02-07T13:37:19.135Z,200.71
2023-02-07T13:38:19.156Z,200.97
2023-02-07T13:39:19.994Z,200.79
2023-02-07T13:40:20.974Z,200.84
2023-02-07T13:41:19.216Z,202.24
2023-02-07T13:42:19.246Z,200.71
2023-02-07T13:43:19.270Z,200.23
2023-02-07T13:44:19.295Z,200.74
2023-02-07T13:45:19.315Z,199.97
2023-02-07T13:46:20.021Z,199.52
2023-02-07T13:47:19.353Z,199.70
2023-02-07T13:48:19.387Z,199.08
2023-02-07T13:49:19.404Z,199.83
2023-02-07T13:50:19.421Z,200.02
2023-02-07T13:51:19.458Z,200.15
2023-02-07T13:52:19.466Z,198.79
2023-02-07T13:53:19.486Z,198.98
2023-02-07T13:54:19.519Z,198.89
2023-02-07T13:55:19.569Z,197.98
2023-02-07T13:56:19.605Z,198.97
2023-02-07T13:57:19.656Z,198.45
2023-02-07T13:58:19.786Z,198.13
2023-02-07T13:59:19.723Z,198.65
2023-02-07T14:00:19.840Z,199.42
2023-02-07T14:01:19.882Z,199.00
2023-02-07T14:02:19.879Z,199.62
2023-02-07T14:03:19.959Z,198.69
2023-02-07T14:04:20.063Z,197.89
2023-02-07T14:05:19.989Z,196.53
2023-02-07T14:06:20.014Z,198.46
2023-02-07T14:07:20.057Z,198.11
2023-02-07T14:08:20.112Z,196.87
2023-02-07T14:09:20.182Z,199.09
2023-02-07T14:10:20.231Z,199.68
2023-02-07T14:11:20.259Z,198.60
2023-02-07T14:12:20.319Z,196.01
2023-02-07T14:13:20.363Z,197.15
2023-02-07T14:14:20.433Z,198.97
2023-02-07T14:15:20.480Z,197.98
2023-02-07T14:16:20.522Z,198.03
2023-02-07T14:17:20.519Z,197.70
2023-02-07T14:18:20.552Z,197.57
2023-02-07T14:19:20.577Z,198.02
2023-02-07T14:20:20.605Z,196.50
2023-02-07T14:21:20.623Z,197.36
2023-02-07T14:22:20.645Z,197.87
2023-02-07T14:23:20.671Z,196.69
2023-02-07T14:24:20.698Z,195.86
2023-02-07T14:25:20.699Z,196.39
2023-02-07T14:26:20.717Z,195.51
2023-02-07T14:27:20.787Z,197.21
2023-02-07T14:28:20.881Z,195.71
2023-02-07T14:29:20.864Z,196.75
2023-02-07T14:30:20.881Z,196.16
2023-02-07T14:31:21.013Z,195.82
2023-02-07T14:32:20.960Z,196.47
2023-02-07T14:33:20.982Z,194.94
2023-02-07T14:34:21.008Z,195.08
2023-02-07T14:35:21.045Z,195.21
2023-02-07T14:36:21.087Z,193.90
2023-02-07T14:37:21.124Z,194.87
2023-02-07T14:38:21.178Z,195.49
2023-02-07T14:39:21.221Z,194.18
2023-02-07T14:40:21.256Z,193.47
2023-02-07T14:41:21.277Z,192.63
2023-02-07T14:42:21.285Z,193.66
2023-02-07T14:43:21.320Z,192.86
2023-02-07T14:44:21.350Z,193.97
2023-02-07T14:45:21.413Z,193.64
2023-02-07T14:46:21.427Z,191.84
2023-02-07T14:47:21.439Z,192.73
2023-02-07T14:48:21.444Z,192.87
2023-02-07T14:49:21.492Z,192.19
2023-02-07T14:50:21.504Z,191.99
2023-02-07T14:51:21.533Z,191.88
2023-02-07T14:52:21.576Z,191.57
2023-02-07T14:53:21.627Z,192.49
2023-02-07T14:54:21.671Z,191.64
2023-02-07T14:55:21.674Z,191.10
2023-02-07T14:56:21.698Z,190.05
2023-02-07T14:57:21.708Z,191.10
2023-02-07T14:58:21.739Z,190.57
2023-02-07T14:59:21.752Z,191.09
2023-02-07T15:00:21.792Z,190.69
2023-02-07T15:01:21.858Z,190.57
2023-02-07T15:02:21.841Z,190.35
2023-02-07T15:03:21.883Z,190.05
2023-02-07T15:04:21.901Z,189.52
2023-02-07T15:05:21.931Z,189.56
2023-02-07T15:06:31.968Z,189.04
2023-02-07T15:07:22.935Z,189.16
2023-02-07T15:08:21.931Z,189.29
2023-02-07T15:09:21.903Z,189.58
2023-02-07T15:10:21.950Z,189.78
2023-02-07T15:11:21.887Z,189.78
2023-02-07T15:12:27.051Z,189.60
2023-02-07T15:13:22.840Z,189.74
2023-02-07T15:14:21.815Z,189.86
2023-02-07T15:15:21.802Z,189.72
2023-02-07T15:16:21.847Z,189.79
2023-02-07T15:17:21.775Z,188.84
2023-02-07T15:18:21.773Z,189.04
2023-02-07T15:19:21.740Z,188.02
2023-02-07T15:20:21.725Z,187.58
2023-02-07T15:21:21.731Z,188.33
2023-02-07T15:22:25.652Z,187.60
2023-02-07T15:23:21.713Z,187.72
2023-02-07T15:24:21.708Z,187.85
2023-02-07T15:25:21.677Z,187.94
2023-02-07T15:26:21.659Z,187.85
2023-02-07T15:27:21.650Z,188.70
2023-02-07T15:28:27.026Z,188.43
2023-02-07T15:29:23.966Z,188.54
2023-02-07T15:30:21.608Z,188.54
2023-02-07T15:31:21.728Z,188.64
2023-02-07T15:32:21.702Z,188.21
2023-02-07T15:33:21.582Z,186.85
2023-02-07T15:34:21.570Z,187.56
2023-02-07T15:35:21.575Z,188.29
2023-02-07T15:36:21.550Z,187.40
2023-02-07T15:37:21.540Z,187.47
2023-02-07T15:38:21.541Z,185.03
2023-02-07T15:39:21.512Z,185.32
2023-02-07T15:40:21.507Z,185.04
2023-02-07T15:41:21.502Z,184.40
2023-02-07T15:42:21.494Z,185.14
2023-02-07T15:43:21.485Z,185.54
2023-02-07T15:44:21.472Z,186.12
2023-02-07T15:45:24.476Z,184.06
2023-02-07T15:46:21.496Z,184.15
2023-02-07T15:47:21.436Z,184.23
2023-02-07T15:48:21.426Z,184.78
2023-02-07T15:49:21.413Z,184.45
2023-02-07T15:50:21.414Z,184.43
2023-02-07T15:51:21.407Z,183.50
2023-02-07T15:52:21.380Z,184.45
2023-02-07T15:53:21.397Z,183.98
2023-02-07T15:54:21.359Z,183.54
2023-02-07T15:55:21.348Z,182.99
2023-02-07T15:56:21.338Z,182.78
2023-02-07T15:57:21.321Z,184.17
2023-02-07T15:58:21.316Z,183.37
2023-02-07T15:59:21.301Z,182.16
2023-02-07T16:00:21.305Z,183.22
2023-02-07T16:01:21.299Z,184.76
2023-02-07T16:02:21.267Z,182.00
2023-02-07T16:03:21.260Z,182.99
2023-02-07T16:04:21.263Z,182.26
2023-02-07T16:05:21.269Z,182.89
2023-02-07T16:06:21.402Z,182.21
2023-02-07T16:07:21.215Z,183.24
2023-02-07T16:08:21.206Z,181.63
2023-02-07T16:09:21.191Z,181.88
2023-02-07T16:10:21.175Z,181.73
2023-02-07T16:11:21.228Z,180.85
2023-02-07T16:12:21.146Z,182.97
2023-02-07T16:13:21.140Z,182.48
2023-02-07T16:14:21.147Z,180.93
2023-02-07T16:15:21.121Z,179.81
2023-02-07T16:16:21.180Z,180.65
2023-02-07T16:17:21.112Z,181.51
2023-02-07T16:18:21.100Z,181.75
2023-02-07T16:19:21.083Z,180.70
2023-02-07T16:20:21.067Z,180.87
2023-02-07T16:21:21.080Z,181.30
2023-02-07T16:22:21.052Z,180.56
2023-02-07T16:23:21.038Z,180.28
2023-02-07T16:24:21.027Z,181.03
2023-02-07T16:25:21.026Z,181.18
2023-02-07T16:26:21.059Z,180.78
2023-02-07T16:27:21.007Z,179.97
2023-02-07T16:28:21.060Z,179.91
2023-02-07T16:29:20.984Z,180.10
2023-02-07T16:30:20.978Z,179.59
2023-02-07T16:31:21.028Z,180.94
2023-02-07T16:32:20.955Z,178.91
2023-02-07T16:33:20.937Z,179.77
2023-02-07T16:34:20.925Z,178.82
2023-02-07T16:35:20.908Z,177.31
2023-02-07T16:36:20.892Z,178.79
2023-02-07T16:37:20.878Z,178.43
2023-02-07T16:38:20.859Z,178.75
2023-02-07T16:39:20.837Z,179.31
2023-02-07T16:40:20.838Z,177.77
2023-02-07T16:53:20.691Z,177.34
2023-02-07T16:54:20.682Z,176.63
2023-02-07T16:55:20.676Z,177.46
2023-02-07T16:56:20.650Z,176.69
2023-02-07T16:57:20.643Z,175.81
2023-02-07T16:58:20.616Z,175.86
2023-02-07T16:59:20.607Z,177.27
2023-02-07T17:00:20.601Z,175.94
2023-02-07T17:01:20.593Z,176.38
2023-02-07T17:02:20.619Z,175.54
2023-02-07T17:03:20.535Z,176.15
2023-02-07T17:04:20.525Z,176.31
2023-02-07T17:05:20.511Z,176.35
2023-02-07T17:06:20.480Z,175.51
2023-02-07T17:07:20.469Z,176.11
2023-02-07T17:08:20.452Z,174.24
2023-02-07T17:09:20.451Z,175.88
2023-02-07T17:10:20.420Z,174.87
2023-02-07T17:11:20.406Z,175.18
2023-02-07T17:12:20.398Z,175.11
2023-02-07T17:13:20.376Z,174.37
2023-02-07T17:14:20.353Z,174.01
2023-02-07T17:15:20.352Z,174.82
2023-02-07T17:16:20.365Z,174.52
2023-02-07T17:17:20.296Z,174.83
2023-02-07T17:18:20.299Z,172.52
2023-02-07T17:19:20.276Z,175.75
2023-02-07T17:20:20.253Z,173.50
2023-02-07T17:21:20.244Z,173.95
2023-02-07T17:22:20.226Z,174.02
2023-02-07T17:23:20.203Z,173.20
2023-02-07T17:24:20.190Z,173.68
2023-02-07T17:25:20.189Z,173.05
2023-02-07T17:26:21.773Z,174.34
2023-02-07T17:27:20.149Z,175.64
2023-02-07T17:28:20.155Z,174.01
2023-02-07T17:29:20.128Z,174.51
2023-02-07T17:30:20.120Z,174.06
2023-02-07T17:31:20.235Z,174.59
2023-02-07T17:32:20.090Z,172.65
2023-02-07T17:33:20.069Z,173.13
2023-02-07T17:34:20.781Z,171.99
2023-02-07T17:35:20.052Z,173.56
2023-02-07T17:36:20.039Z,174.41
2023-02-07T17:37:20.033Z,173.13
2023-02-07T17:38:20.003Z,172.41
2023-02-07T17:39:19.991Z,171.99
2023-02-07T17:40:19.983Z,173.96
2023-02-07T17:41:19.977Z,173.03
2023-02-07T17:42:19.962Z,172.47
2023-02-07T17:43:19.962Z,171.01
2023-02-07T17:44:19.993Z,170.30
2023-02-07T17:45:19.927Z,171.78
2023-02-07T17:46:19.986Z,171.08
2023-02-07T17:47:19.899Z,171.65
2023-02-07T17:48:19.897Z,171.41
2023-02-07T17:49:19.887Z,171.77
2023-02-07T17:50:19.876Z,171.24
2023-02-07T17:51:19.853Z,170.57
2023-02-07T17:52:19.831Z,171.04
2023-02-07T17:53:19.822Z,170.25
2023-02-07T17:54:19.809Z,169.85
2023-02-07T17:55:19.795Z,171.04
2023-02-07T17:56:19.802Z,169.65
2023-02-07T17:57:19.786Z,169.50